Time;durP1;ratioP1;P1;durP2;ratioP2;P2;SDS_P1;SDS_P2;PMS_P1;PMS_P2;Temp;Humidity;BMP_temperature;BMP_pressure;BME280_temperature;BME280_humidity;BME280_pressure;Samples;Min_cycle;Max_cycle;Signal;HPM_P1;HPM_P2
2022/06/25 00:01:18;;;;;;;;;;;;;;;15.63;66.77;100352.54;84759;1326;22551;-71
2022/06/25 00:03:21;;;;;;;;;;;;;;;15.61;66.99;100354.22;84789;1326;22570;-70
2022/06/25 00:05:27;;;;;;;;;;;;;;;15.57;67.11;100359.06;84782;1326;22728;-70
2022/06/25 00:07:31;;;;;;;;;;;;;;;15.54;67.37;100359.95;84766;1325;23918;-70
2022/06/25 00:09:34;;;;;;;;;;;;;;;15.50;67.54;100359.77;84786;1327;22538;-70
2022/06/25 00:13:58;;;;;;;;;;;;;;;15.44;67.80;100362.08;84772;1326;22611;-71
2022/06/25 00:16:02;;;;;;;;;;;;;;;15.42;67.80;100361.13;84781;1327;22575;-70
2022/06/25 00:18:05;;;;;;;;;;;;;;;15.41;67.94;100361.20;84784;1327;25979;-70
2022/06/25 00:20:11;;;;;;;;;;;;;;;15.39;68.10;100361.14;84718;1326;22697;-70
2022/06/25 00:22:14;;;;;;;;;;;;;;;15.38;68.30;100365.09;84805;1327;22706;-71
2022/06/25 00:24:17;;;;;;;;;;;;;;;15.36;68.11;100365.89;84773;1327;23968;-71
2022/06/25 00:26:21;;;;;;;;;;;;;;;15.33;68.20;100360.11;84766;1330;22665;-70
2022/06/25 00:28:24;;;;;;;;;;;;;;;15.31;68.23;100363.35;84783;1326;24304;-71
2022/06/25 00:30:28;;;;;;;;;;;;;;;15.28;68.27;100360.40;84798;1326;22582;-70
2022/06/25 00:32:31;;;;;;;;;;;;;;;15.26;68.27;100357.70;84774;1327;22574;-70
2022/06/25 00:34:34;;;;;;;;;;;;;;;15.24;68.46;100359.39;84775;1326;22584;-71
2022/06/25 00:36:38;;;;;;;;;;;;;;;15.22;68.58;100357.17;84781;1322;24211;-70
2022/06/25 00:38:41;;;;;;;;;;;;;;;15.18;68.57;100357.58;84755;1322;24258;-70
2022/06/25 00:40:44;;;;;;;;;;;;;;;15.16;68.69;100360.16;84783;1326;22596;-71
2022/06/25 00:42:49;;;;;;;;;;;;;;;15.14;68.69;100361.53;84737;1327;24263;-70
2022/06/25 00:44:53;;;;;;;;;;;;;;;15.12;68.73;100357.61;84813;1330;24310;-70
2022/06/25 00:46:57;;;;;;;;;;;;;;;15.10;68.88;100362.09;84791;1326;23974;-71
2022/06/25 00:49:01;;;;;;;;;;;;;;;15.08;68.96;100359.60;84793;1326;22711;-71
2022/06/25 00:51:06;;;;;;;;;;;;;;;15.05;68.96;100358.34;84789;1326;22574;-71
2022/06/25 00:53:09;;;;;;;;;;;;;;;15.03;69.02;100359.71;84693;1328;25440;-71
2022/06/25 00:55:13;;;;;;;;;;;;;;;15.00;69.10;100355.83;84759;1326;22567;-70
2022/06/25 00:57:18;;;;;;;;;;;;;;;14.98;69.20;100359.48;84776;1323;22576;-70
2022/06/25 00:59:26;;;;;;;;;;;;;;;14.96;69.19;100358.52;84775;1320;22851;-71
2022/06/25 01:01:30;;;;;;;;;;;;;;;14.94;69.26;100357.92;84762;1325;22573;-71
2022/06/25 01:03:33;;;;;;;;;;;;;;;14.92;69.42;100354.49;84784;1325;22671;-71
2022/06/25 01:05:36;;;;;;;;;;;;;;;14.91;69.53;100356.48;84816;1326;22549;-71
2022/06/25 01:07:40;;;;;;;;;;;;;;;14.90;69.58;100356.23;84697;1326;22632;-70
2022/06/25 01:09:43;;;;;;;;;;;;;;;14.90;69.81;100359.71;84812;1326;22537;-70
2022/06/25 01:11:47;;;;;;;;;;;;;;;14.90;69.83;100359.20;84787;1324;22591;-70
2022/06/25 01:13:52;;;;;;;;;;;;;;;14.93;69.83;100363.77;84781;1327;22845;-70
2022/06/25 01:15:55;;;;;;;;;;;;;;;14.96;69.91;100360.94;84787;1322;22556;-70
2022/06/25 01:17:59;;;;;;;;;;;;;;;14.99;69.77;100362.96;84786;1322;22593;-71
2022/06/25 01:20:02;;;;;;;;;;;;;;;15.00;69.78;100364.11;84804;1326;22584;-70
2022/06/25 01:22:06;;;;;;;;;;;;;;;15.02;69.87;100362.75;84806;1326;22742;-71
2022/06/25 01:24:09;;;;;;;;;;;;;;;15.05;69.82;100362.42;84712;1330;25284;-70
2022/06/25 01:26:13;;;;;;;;;;;;;;;15.06;69.69;100362.69;84779;1324;22687;-70
2022/06/25 01:28:16;;;;;;;;;;;;;;;15.05;69.64;100361.50;84785;1326;25991;-70
2022/06/25 01:30:20;;;;;;;;;;;;;;;15.03;69.34;100357.60;84781;1325;24290;-70
2022/06/25 01:32:23;;;;;;;;;;;;;;;15.01;69.42;100354.40;84716;1328;24102;-70
2022/06/25 01:34:26;;;;;;;;;;;;;;;14.98;69.33;100352.61;84802;1326;22585;-70
2022/06/25 01:36:29;;;;;;;;;;;;;;;14.96;69.30;100350.92;84709;1326;22559;-71
2022/06/25 01:38:33;;;;;;;;;;;;;;;14.95;69.29;100353.11;84726;1326;23970;-70
2022/06/25 01:40:37;;;;;;;;;;;;;;;14.93;69.36;100354.62;84775;1326;22568;-70
2022/06/25 01:42:59;;;;;;;;;;;;;;;14.90;69.35;100351.79;84799;1326;22595;-70
2022/06/25 01:45:03;;;;;;;;;;;;;;;14.88;69.41;100353.17;84772;1326;25436;-71
2022/06/25 01:47:06;;;;;;;;;;;;;;;14.85;69.47;100351.21;84796;1326;22547;-71
2022/06/25 01:49:09;;;;;;;;;;;;;;;14.84;69.41;100347.77;84779;1327;23973;-70
2022/06/25 01:51:13;;;;;;;;;;;;;;;14.83;69.51;100345.39;84715;1330;22581;-70
2022/06/25 01:53:17;;;;;;;;;;;;;;;14.82;69.58;100350.01;84710;1329;22651;-71
2022/06/25 01:55:20;;;;;;;;;;;;;;;14.80;69.55;100350.27;84784;1327;22870;-70
2022/06/25 01:57:23;;;;;;;;;;;;;;;14.78;69.71;100354.10;84781;1326;22947;-69
2022/06/25 01:59:26;;;;;;;;;;;;;;;14.74;69.89;100354.83;84767;1325;25285;-71
2022/06/25 02:01:30;;;;;;;;;;;;;;;14.72;70.04;100360.54;84770;1326;22874;-70
2022/06/25 02:03:33;;;;;;;;;;;;;;;14.69;70.09;100366.01;84769;1328;24238;-70
2022/06/25 02:07:58;;;;;;;;;;;;;;;14.63;70.46;100371.08;84784;1326;22601;-70
2022/06/25 02:10:02;;;;;;;;;;;;;;;14.58;70.51;100366.05;84795;1327;22687;-71
2022/06/25 02:12:07;;;;;;;;;;;;;;;14.55;70.77;100366.79;84752;1326;22586;-70
2022/06/25 02:14:10;;;;;;;;;;;;;;;14.53;70.91;100365.14;84783;1330;23962;-71
2022/06/25 02:16:15;;;;;;;;;;;;;;;14.51;70.93;100368.74;84762;1326;23036;-71
2022/06/25 02:18:18;;;;;;;;;;;;;;;14.49;71.25;100365.69;84779;1330;24340;-70
2022/06/25 02:20:21;;;;;;;;;;;;;;;14.47;71.33;100368.21;84768;1326;23334;-70
2022/06/25 02:22:25;;;;;;;;;;;;;;;14.45;71.46;100370.92;84795;1326;22595;-71
2022/06/25 02:24:28;;;;;;;;;;;;;;;14.44;71.64;100370.83;84791;1326;22621;-70
2022/06/25 02:26:31;;;;;;;;;;;;;;;14.42;71.70;100368.64;84793;1327;22735;-70
2022/06/25 02:28:35;;;;;;;;;;;;;;;14.42;71.93;100371.10;84790;1326;25412;-71
2022/06/25 02:30:38;;;;;;;;;;;;;;;14.41;71.98;100368.86;84773;1326;22596;-70
2022/06/25 02:32:41;;;;;;;;;;;;;;;14.40;72.11;100370.14;84776;1327;25320;-71
2022/06/25 02:34:45;;;;;;;;;;;;;;;14.40;72.23;100369.97;84767;1328;22666;-70
2022/06/25 02:36:50;;;;;;;;;;;;;;;14.40;72.31;100373.30;84792;1327;22684;-71
2022/06/25 02:38:54;;;;;;;;;;;;;;;14.40;72.59;100372.63;84795;1330;22600;-71
2022/06/25 02:40:57;;;;;;;;;;;;;;;14.41;72.80;100374.30;84738;1324;22920;-70
2022/06/25 02:43:01;;;;;;;;;;;;;;;14.43;72.76;100374.40;84798;1327;22520;-71
2022/06/25 02:45:06;;;;;;;;;;;;;;;14.46;73.04;100377.55;84790;1326;22566;-70
2022/06/25 02:47:09;;;;;;;;;;;;;;;14.50;73.06;100377.77;84801;1327;24188;-71
2022/06/25 02:49:13;;;;;;;;;;;;;;;14.54;73.08;100376.85;84789;1326;24359;-70
2022/06/25 02:51:16;;;;;;;;;;;;;;;14.58;73.01;100375.36;84788;1325;22540;-71
2022/06/25 02:53:19;;;;;;;;;;;;;;;14.63;73.18;100374.55;84785;1326;22579;-72
2022/06/25 02:58:54;;;;;;;;;;;;;;;14.69;73.14;100374.40;84791;1330;22534;-71
2022/06/25 03:00:13;;;;;;;;;;;;;;;14.83;73.03;100370.30;84770;1324;22531;-69
2022/06/25 03:02:17;;;;;;;;;;;;;;;14.92;73.00;100367.83;84751;1326;26043;-69
2022/06/25 03:04:20;;;;;;;;;;;;;;;14.99;72.74;100367.33;84788;1326;22755;-71
2022/06/25 03:06:23;;;;;;;;;;;;;;;15.05;72.74;100366.77;84764;1323;22730;-70
2022/06/25 03:08:27;;;;;;;;;;;;;;;15.10;72.63;100366.52;84765;1327;22599;-72
2022/06/25 03:10:30;;;;;;;;;;;;;;;15.14;72.67;100368.59;84755;1330;25946;-70
2022/06/25 03:12:34;;;;;;;;;;;;;;;15.17;72.43;100366.80;84774;1326;23990;-70
2022/06/25 03:14:38;;;;;;;;;;;;;;;15.20;72.23;100366.10;84769;1326;22556;-70
2022/06/25 03:16:41;;;;;;;;;;;;;;;15.24;72.22;100364.13;84778;1328;24441;-70
2022/06/25 03:18:44;;;;;;;;;;;;;;;15.27;72.24;100364.67;84747;1326;22580;-71
2022/06/25 03:20:50;;;;;;;;;;;;;;;15.30;72.19;100363.96;84781;1326;23797;-71
2022/06/25 03:22:53;;;;;;;;;;;;;;;15.36;72.24;100361.66;84775;1330;22575;-71
2022/06/25 03:24:56;;;;;;;;;;;;;;;15.44;72.14;100361.55;84757;1330;22530;-71
2022/06/25 03:26:59;;;;;;;;;;;;;;;15.53;72.20;100364.35;84755;1329;23877;-70
2022/06/25 03:29:03;;;;;;;;;;;;;;;15.69;72.46;100367.18;84768;1326;25425;-70
2022/06/25 03:31:06;;;;;;;;;;;;;;;15.98;72.55;100367.88;84750;1329;22737;-70
2022/06/25 03:33:09;;;;;;;;;;;;;;;16.67;73.30;100366.77;84770;1326;22854;-71
2022/06/25 03:35:13;;;;;;;;;;;;;;;17.60;72.63;100368.11;84783;1326;22738;-71
2022/06/25 03:37:16;;;;;;;;;;;;;;;18.51;71.28;100367.17;84754;1327;22593;-71
2022/06/25 03:39:19;;;;;;;;;;;;;;;19.45;69.94;100366.81;84769;1326;25293;-71
2022/06/25 03:41:36;;;;;;;;;;;;;;;20.48;67.94;100364.95;84755;1326;22636;-70
2022/06/25 03:43:39;;;;;;;;;;;;;;;21.54;65.77;100363.76;84757;1327;22723;-71
2022/06/25 03:45:42;;;;;;;;;;;;;;;22.52;63.51;100366.20;84763;1326;24409;-70
2022/06/25 03:47:50;;;;;;;;;;;;;;;23.41;60.90;100363.33;84746;1326;22598;-70
2022/06/25 03:49:55;;;;;;;;;;;;;;;24.28;58.50;100363.52;84763;1326;22734;-71
2022/06/25 03:51:58;;;;;;;;;;;;;;;25.09;56.13;100361.41;84761;1327;24486;-70
2022/06/25 03:54:01;;;;;;;;;;;;;;;25.85;53.93;100359.78;84768;1326;22580;-70
2022/06/25 03:56:05;;;;;;;;;;;;;;;26.63;51.34;100365.89;84766;1330;22756;-70
2022/06/25 03:58:08;;;;;;;;;;;;;;;27.24;48.83;100371.28;84532;1326;310517;-71
2022/06/25 04:00:14;;;;;;;;;;;;;;;27.92;47.09;100367.29;84774;1327;22897;-71
2022/06/25 04:02:18;;;;;;;;;;;;;;;28.52;44.77;100367.44;84743;1326;22678;-71
2022/06/25 04:04:21;;;;;;;;;;;;;;;28.95;42.61;100374.80;84760;1329;24111;-71
2022/06/25 04:06:25;;;;;;;;;;;;;;;29.32;41.71;100368.79;84756;1327;22575;-71
2022/06/25 04:08:28;;;;;;;;;;;;;;;29.78;40.12;100370.14;84761;1326;22543;-71
2022/06/25 04:10:31;;;;;;;;;;;;;;;30.18;40.00;100374.59;84774;1326;24206;-70
2022/06/25 04:12:37;;;;;;;;;;;;;;;30.51;38.66;100375.78;84757;1327;25425;-70
2022/06/25 04:14:40;;;;;;;;;;;;;;;30.89;37.66;100377.05;84741;1326;25274;-70
2022/06/25 04:16:43;;;;;;;;;;;;;;;31.29;37.07;100383.35;84758;1326;22890;-70
2022/06/25 04:18:47;;;;;;;;;;;;;;;31.69;36.08;100380.23;84763;1327;24240;-70
2022/06/25 04:20:50;;;;;;;;;;;;;;;32.17;34.56;100375.91;84741;1330;24898;-71
2022/06/25 04:22:53;;;;;;;;;;;;;;;32.64;32.69;100377.50;84757;1326;22580;-70
2022/06/25 04:24:56;;;;;;;;;;;;;;;32.85;32.15;100381.84;84739;1326;22720;-70
2022/06/25 04:27:00;;;;;;;;;;;;;;;33.08;31.63;100383.52;84748;1329;22781;-71
2022/06/25 04:29:08;;;;;;;;;;;;;;;33.47;31.46;100382.30;84731;1326;25413;-71
2022/06/25 04:31:11;;;;;;;;;;;;;;;33.90;30.52;100382.61;84739;1330;22691;-71
2022/06/25 04:33:14;;;;;;;;;;;;;;;34.19;29.92;100383.77;84751;1328;22597;-71
2022/06/25 04:35:18;;;;;;;;;;;;;;;34.46;29.66;100384.66;84755;1326;22663;-71
2022/06/25 04:37:21;;;;;;;;;;;;;;;34.61;28.97;100382.60;84754;1330;22587;-71
2022/06/25 04:39:24;;;;;;;;;;;;;;;34.69;28.16;100381.66;84762;1329;22606;-71
2022/06/25 04:41:28;;;;;;;;;;;;;;;34.62;28.41;100381.93;84753;1330;22723;-71
2022/06/25 04:43:31;;;;;;;;;;;;;;;34.27;28.14;100383.10;84735;1328;22624;-71
2022/06/25 04:45:34;;;;;;;;;;;;;;;33.70;28.59;100381.11;84761;1330;23908;-71
2022/06/25 04:47:38;;;;;;;;;;;;;;;33.56;28.68;100382.62;84724;1326;22587;-71
2022/06/25 04:49:41;;;;;;;;;;;;;;;33.65;28.78;100386.71;84734;1327;22606;-71
2022/06/25 04:51:44;;;;;;;;;;;;;;;33.86;29.15;100388.45;84751;1330;24354;-71
2022/06/25 04:53:57;;;;;;;;;;;;;;;34.19;29.38;100383.09;84755;1327;22838;-71
2022/06/25 04:56:00;;;;;;;;;;;;;;;34.64;28.97;100388.98;84731;1326;22590;-71
2022/06/25 04:58:03;;;;;;;;;;;;;;;35.22;27.83;100389.30;84737;1326;22517;-71
2022/06/25 05:00:11;;;;;;;;;;;;;;;35.61;26.62;100394.73;84758;1328;22596;-71
2022/06/25 05:02:14;;;;;;;;;;;;;;;35.84;25.67;100388.89;84747;1327;22906;-71
2022/06/25 05:04:18;;;;;;;;;;;;;;;35.77;25.68;100392.60;84718;1326;22567;-71
2022/06/25 05:06:21;;;;;;;;;;;;;;;35.97;25.81;100393.59;84739;1330;25230;-71
2022/06/25 05:08:24;;;;;;;;;;;;;;;36.39;25.43;100400.98;84741;1330;22559;-70
2022/06/25 05:10:27;;;;;;;;;;;;;;;36.88;24.94;100399.02;84744;1330;22573;-70
2022/06/25 05:14:52;;;;;;;;;;;;;;;37.92;23.69;100405.83;84718;1326;22578;-70
2022/06/25 05:16:56;;;;;;;;;;;;;;;38.14;23.20;100407.41;84729;1326;22603;-70
2022/06/25 05:18:59;;;;;;;;;;;;;;;38.33;22.69;100398.73;84730;1326;22914;-70
2022/06/25 05:21:02;;;;;;;;;;;;;;;38.48;22.62;100406.61;84700;1326;23834;-70
2022/06/25 05:23:06;;;;;;;;;;;;;;;38.64;21.97;100408.81;84725;1326;22614;-70
2022/06/25 05:25:10;;;;;;;;;;;;;;;38.98;21.92;100409.79;84741;1326;22601;-70
2022/06/25 05:27:13;;;;;;;;;;;;;;;39.12;21.71;100413.76;84731;1330;22596;-70
2022/06/25 05:29:16;;;;;;;;;;;;;;;39.17;21.46;100413.16;84734;1328;22714;-70
2022/06/25 05:31:19;;;;;;;;;;;;;;;39.33;20.89;100414.54;84730;1323;22586;-70
2022/06/25 05:33:23;;;;;;;;;;;;;;;39.46;20.69;100411.61;84740;1330;22574;-70
2022/06/25 05:35:26;;;;;;;;;;;;;;;39.72;20.86;100411.99;84721;1327;22586;-70
2022/06/25 05:37:29;;;;;;;;;;;;;;;39.92;20.18;100411.88;84720;1328;22606;-70
2022/06/25 05:39:33;;;;;;;;;;;;;;;40.18;20.28;100413.86;84727;1326;25437;-70
2022/06/25 05:41:36;;;;;;;;;;;;;;;40.45;19.94;100414.96;84734;1326;23099;-70
2022/06/25 05:43:40;;;;;;;;;;;;;;;40.67;19.47;100416.13;84715;1330;22572;-70
2022/06/25 05:45:43;;;;;;;;;;;;;;;40.74;19.35;100412.92;84725;1330;22614;-71
2022/06/25 05:47:48;;;;;;;;;;;;;;;40.88;19.12;100409.68;84718;1329;22590;-71
2022/06/25 05:49:51;;;;;;;;;;;;;;;41.03;18.96;100409.77;84730;1326;22570;-71
2022/06/25 05:51:55;;;;;;;;;;;;;;;41.14;18.75;100407.07;84731;1326;22630;-71
2022/06/25 05:53:58;;;;;;;;;;;;;;;41.37;19.01;100407.68;84807;1326;22565;-71
2022/06/25 05:56:01;;;;;;;;;;;;;;;41.68;18.03;100407.95;84712;1330;23932;-72
2022/06/25 05:58:07;;;;;;;;;;;;;;;41.53;18.38;100404.48;84731;1326;22890;-71
2022/06/25 06:00:12;;;;;;;;;;;;;;;41.74;17.97;100402.23;84719;1326;22557;-71
2022/06/25 06:02:16;;;;;;;;;;;;;;;41.69;18.40;100403.25;84709;1329;22562;-71
2022/06/25 06:04:20;;;;;;;;;;;;;;;41.68;18.00;100405.10;84717;1326;22696;-71
2022/06/25 06:06:23;;;;;;;;;;;;;;;41.63;17.90;100403.79;84700;1327;22845;-71
2022/06/25 06:08:26;;;;;;;;;;;;;;;41.81;17.73;100406.70;84720;1330;22599;-71
2022/06/25 06:10:30;;;;;;;;;;;;;;;41.96;18.38;100409.61;84702;1330;22616;-71
2022/06/25 06:12:33;;;;;;;;;;;;;;;42.13;17.68;100407.79;84726;1326;22616;-71
2022/06/25 06:14:36;;;;;;;;;;;;;;;42.06;17.40;100404.17;84716;1326;22880;-71
2022/06/25 06:16:40;;;;;;;;;;;;;;;42.08;16.90;100405.84;84699;1330;22589;-71
2022/06/25 06:18:43;;;;;;;;;;;;;;;42.17;17.35;100409.14;84727;1326;23057;-71
2022/06/25 06:20:47;;;;;;;;;;;;;;;42.28;17.39;100407.40;84706;1326;23708;-71
2022/06/25 06:22:50;;;;;;;;;;;;;;;42.29;16.73;100403.77;84712;1326;22613;-71
2022/06/25 06:24:53;;;;;;;;;;;;;;;42.20;16.84;100410.05;84715;1326;22580;-71
2022/06/25 06:26:57;;;;;;;;;;;;;;;42.32;17.05;100407.59;84720;1326;22660;-71
2022/06/25 06:29:00;;;;;;;;;;;;;;;42.70;16.88;100401.92;84743;1326;22780;-71
2022/06/25 06:31:04;;;;;;;;;;;;;;;42.90;16.72;100406.34;84720;1327;22589;-71
2022/06/25 06:33:07;;;;;;;;;;;;;;;43.03;16.29;100404.08;84738;1327;24305;-71
2022/06/25 06:35:11;;;;;;;;;;;;;;;43.03;16.02;100405.35;84742;1330;24233;-71
2022/06/25 06:37:14;;;;;;;;;;;;;;;42.95;16.46;100407.66;84719;1327;25534;-71
2022/06/25 06:39:17;;;;;;;;;;;;;;;42.98;16.15;100404.98;84732;1324;22606;-71
2022/06/25 06:41:21;;;;;;;;;;;;;;;42.92;15.11;100405.30;84708;1326;22634;-71
2022/06/25 06:43:24;;;;;;;;;;;;;;;42.80;15.61;100409.48;84789;1326;23828;-71
2022/06/25 06:45:27;;;;;;;;;;;;;;;42.80;15.73;100406.27;84739;1327;23905;-71
2022/06/25 06:47:31;;;;;;;;;;;;;;;42.90;15.91;100405.67;84724;1326;22884;-71
2022/06/25 06:49:35;;;;;;;;;;;;;;;43.09;15.63;100408.94;84712;1330;22588;-71
2022/06/25 06:51:38;;;;;;;;;;;;;;;43.10;15.23;100408.83;84731;1326;24241;-71
2022/06/25 06:53:41;;;;;;;;;;;;;;;43.02;15.79;100410.45;84720;1324;22573;-71
2022/06/25 06:55:45;;;;;;;;;;;;;;;43.08;15.77;100413.13;84726;1329;25199;-71
2022/06/25 06:57:48;;;;;;;;;;;;;;;43.22;15.76;100408.84;84721;1330;22681;-70
2022/06/25 06:59:51;;;;;;;;;;;;;;;43.34;15.94;100412.27;84713;1330;23793;-70
2022/06/25 07:01:55;;;;;;;;;;;;;;;43.50;15.74;100408.50;84703;1329;22610;-70
2022/06/25 07:03:58;;;;;;;;;;;;;;;43.66;15.85;100411.74;84808;1327;22579;-70
2022/06/25 07:06:01;;;;;;;;;;;;;;;43.79;15.74;100413.50;84738;1323;22589;-70
2022/06/25 07:08:05;;;;;;;;;;;;;;;43.85;15.16;100408.89;84713;1326;22696;-70
2022/06/25 07:10:09;;;;;;;;;;;;;;;43.79;14.62;100414.88;84730;1326;22602;-70
2022/06/25 07:12:13;;;;;;;;;;;;;;;43.77;14.96;100417.35;84705;1326;22546;-70
2022/06/25 07:14:16;;;;;;;;;;;;;;;43.83;15.01;100419.14;84732;1330;23201;-70
2022/06/25 07:16:19;;;;;;;;;;;;;;;43.78;14.45;100419.52;84734;1330;23772;-70
2022/06/25 07:18:22;;;;;;;;;;;;;;;43.81;14.93;100416.86;84716;1329;22706;-70
2022/06/25 07:20:26;;;;;;;;;;;;;;;43.86;14.20;100417.09;84734;1326;22666;-70
2022/06/25 07:22:29;;;;;;;;;;;;;;;43.93;14.32;100420.34;84717;1326;23866;-71
2022/06/25 07:24:32;;;;;;;;;;;;;;;43.96;14.23;100418.45;84724;1326;22589;-71
2022/06/25 07:26:36;;;;;;;;;;;;;;;44.08;13.70;100422.50;84776;1330;22539;-71
2022/06/25 07:28:39;;;;;;;;;;;;;;;44.08;13.56;100422.80;84764;1328;22535;-71
2022/06/25 07:30:43;;;;;;;;;;;;;;;44.14;14.12;100420.28;84787;1326;22563;-71
2022/06/25 07:32:46;;;;;;;;;;;;;;;44.23;14.07;100421.83;84771;1325;22551;-71
2022/06/25 07:34:50;;;;;;;;;;;;;;;44.28;14.11;100421.61;84764;1327;22600;-71
2022/06/25 07:36:53;;;;;;;;;;;;;;;44.29;14.28;100423.81;84766;1326;22613;-71
2022/06/25 07:38:56;;;;;;;;;;;;;;;44.21;14.18;100428.11;84768;1324;22540;-71
2022/06/25 07:41:00;;;;;;;;;;;;;;;44.21;13.57;100425.14;84774;1329;22556;-71
2022/06/25 07:43:03;;;;;;;;;;;;;;;44.34;13.84;100427.05;84787;1326;22571;-71
2022/06/25 07:45:08;;;;;;;;;;;;;;;44.52;13.14;100430.67;84774;1330;22607;-71
2022/06/25 07:47:12;;;;;;;;;;;;;;;44.36;13.26;100424.50;84784;1330;22571;-71
2022/06/25 07:49:15;;;;;;;;;;;;;;;44.24;13.75;100424.75;84753;1326;22576;-71
2022/06/25 07:53:40;;;;;;;;;;;;;;;44.16;13.45;100428.02;84780;1330;22741;-71
2022/06/25 07:55:43;;;;;;;;;;;;;;;43.99;13.60;100423.80;84799;1326;22517;-71
2022/06/25 07:57:46;;;;;;;;;;;;;;;43.89;13.05;100419.63;84754;1326;22582;-71
2022/06/25 07:59:50;;;;;;;;;;;;;;;43.75;13.13;100419.50;84752;1326;22587;-71
2022/06/25 08:01:53;;;;;;;;;;;;;;;43.67;13.33;100415.38;84764;1326;25411;-71
2022/06/25 08:03:57;;;;;;;;;;;;;;;43.68;13.28;100417.58;84752;1329;24913;-72
2022/06/25 08:06:01;;;;;;;;;;;;;;;43.70;13.57;100410.97;84743;1326;24178;-70
2022/06/25 08:08:05;;;;;;;;;;;;;;;43.71;13.54;100414.39;84760;1326;24327;-70
2022/06/25 08:10:09;;;;;;;;;;;;;;;43.74;13.04;100415.21;84779;1326;22607;-70
2022/06/25 08:12:15;;;;;;;;;;;;;;;43.61;12.96;100420.52;84763;1325;22675;-70
2022/06/25 08:14:19;;;;;;;;;;;;;;;43.41;13.12;100409.42;84760;1329;22586;-70
2022/06/25 08:16:25;;;;;;;;;;;;;;;43.23;13.36;100411.93;84754;1325;22564;-70
2022/06/25 08:18:28;;;;;;;;;;;;;;;43.21;13.17;100408.90;84749;1330;22666;-70
2022/06/25 08:20:31;;;;;;;;;;;;;;;43.05;13.63;100405.23;84772;1327;22644;-70
2022/06/25 08:22:35;;;;;;;;;;;;;;;42.92;13.40;100407.50;84776;1327;22717;-70
2022/06/25 08:24:38;;;;;;;;;;;;;;;42.84;13.70;100410.12;84756;1327;22622;-70
2022/06/25 08:26:43;;;;;;;;;;;;;;;42.92;13.71;100410.75;84764;1326;22560;-70
2022/06/25 08:28:46;;;;;;;;;;;;;;;42.93;13.36;100410.03;84751;1327;24387;-70
2022/06/25 08:30:50;;;;;;;;;;;;;;;42.84;13.34;100405.01;84749;1326;22534;-70
2022/06/25 08:32:53;;;;;;;;;;;;;;;42.86;13.41;100402.58;84763;1326;22575;-70
2022/06/25 08:34:56;;;;;;;;;;;;;;;42.92;13.75;100400.17;84750;1326;22586;-70
2022/06/25 08:37:00;;;;;;;;;;;;;;;42.85;13.47;100401.48;84758;1325;22585;-70
2022/06/25 08:39:03;;;;;;;;;;;;;;;42.70;14.11;100404.73;84758;1326;24239;-70
2022/06/25 08:41:06;;;;;;;;;;;;;;;42.84;14.08;100405.16;84760;1330;22671;-70
2022/06/25 08:43:10;;;;;;;;;;;;;;;42.89;13.87;100402.30;84779;1327;22587;-70
2022/06/25 08:45:13;;;;;;;;;;;;;;;42.94;13.94;100401.66;84746;1327;22579;-69
2022/06/25 08:47:17;;;;;;;;;;;;;;;42.95;14.03;100399.90;84768;1326;22640;-69
2022/06/25 08:49:20;;;;;;;;;;;;;;;42.98;14.33;100400.96;84769;1329;22571;-69
2022/06/25 08:51:26;;;;;;;;;;;;;;;43.15;14.07;100402.39;84771;1326;25451;-69
2022/06/25 08:53:32;;;;;;;;;;;;;;;43.28;14.12;100403.17;84818;1327;22734;-69
2022/06/25 08:55:38;;;;;;;;;;;;;;;43.36;14.16;100401.96;84772;1330;25303;-69
2022/06/25 08:57:41;;;;;;;;;;;;;;;43.50;13.46;100402.71;84762;1326;22635;-70
2022/06/25 08:59:44;;;;;;;;;;;;;;;43.47;14.00;100399.13;84735;1323;23874;-70
2022/06/25 09:01:48;;;;;;;;;;;;;;;43.59;14.09;100402.38;84731;1326;22658;-72
2022/06/25 09:03:52;;;;;;;;;;;;;;;43.62;13.70;100402.42;84760;1329;22550;-70
2022/06/25 09:05:55;;;;;;;;;;;;;;;43.45;13.99;100410.70;84754;1326;25321;-70
2022/06/25 09:07:59;;;;;;;;;;;;;;;43.40;13.93;100405.67;84758;1326;22583;-70
2022/06/25 09:10:03;;;;;;;;;;;;;;;43.30;14.00;100402.63;84760;1326;22578;-69
2022/06/25 09:12:08;;;;;;;;;;;;;;;43.11;14.11;100400.23;84727;1326;22657;-70
2022/06/25 09:14:20;;;;;;;;;;;;;;;42.75;14.63;100401.17;84730;1329;24278;-70
2022/06/25 09:16:26;;;;;;;;;;;;;;;42.31;14.06;100399.21;84753;1326;22572;-69
2022/06/25 09:18:30;;;;;;;;;;;;;;;41.57;14.53;100398.31;84739;1326;25467;-70
2022/06/25 09:20:33;;;;;;;;;;;;;;;41.10;15.06;100401.16;84730;1326;24231;-70
2022/06/25 09:22:36;;;;;;;;;;;;;;;40.55;14.82;100402.36;84704;1329;22830;-70
2022/06/25 09:24:48;;;;;;;;;;;;;;;39.83;15.65;100393.75;84741;1323;22523;-70
2022/06/25 09:26:52;;;;;;;;;;;;;;;39.48;16.83;100395.38;84723;1326;22522;-69
2022/06/25 09:28:55;;;;;;;;;;;;;;;39.27;16.54;100393.58;84760;1326;22585;-69
2022/06/25 09:30:58;;;;;;;;;;;;;;;38.87;16.81;100397.23;84723;1326;22562;-70
2022/06/25 09:33:02;;;;;;;;;;;;;;;38.55;17.09;100399.09;84743;1326;22713;-69
2022/06/25 09:35:07;;;;;;;;;;;;;;;38.22;17.08;100399.36;84703;1330;22582;-69
2022/06/25 09:37:21;;;;;;;;;;;;;;;37.94;18.04;100401.73;84743;1326;22614;-69
2022/06/25 09:39:41;;;;;;;;;;;;;;;37.71;17.01;100391.04;84711;1326;24390;-69
2022/06/25 09:41:50;;;;;;;;;;;;;;;37.41;17.29;100397.44;84725;1326;25302;-69
2022/06/25 09:43:53;;;;;;;;;;;;;;;37.14;18.12;100398.51;84712;1326;22680;-69
2022/06/25 09:46:02;;;;;;;;;;;;;;;36.90;17.87;100397.99;84714;1326;22673;-69
2022/06/25 09:48:08;;;;;;;;;;;;;;;36.70;18.58;100392.73;84726;1326;22872;-69
2022/06/25 09:50:13;;;;;;;;;;;;;;;36.61;18.60;100395.11;84768;1326;24257;-68
2022/06/25 09:52:17;;;;;;;;;;;;;;;36.58;19.37;100394.02;84708;1328;22670;-68
2022/06/25 09:54:20;;;;;;;;;;;;;;;36.53;19.33;100396.56;84689;1326;22608;-68
2022/06/25 09:56:24;;;;;;;;;;;;;;;36.32;18.47;100400.45;84691;1326;22649;-76
2022/06/25 09:58:27;;;;;;;;;;;;;;;36.04;18.81;100394.88;84751;1326;22530;-76
2022/06/25 10:00:31;;;;;;;;;;;;;;;35.78;19.41;100398.27;84735;1326;22609;-76
2022/06/25 10:02:45;;;;;;;;;;;;;;;35.70;19.31;100398.02;84766;1326;24438;-76
2022/06/25 10:04:48;;;;;;;;;;;;;;;35.66;19.52;100398.76;84709;1330;22597;-77
2022/06/25 10:06:54;;;;;;;;;;;;;;;35.64;19.90;100400.88;84747;1327;24266;-76
2022/06/25 10:08:59;;;;;;;;;;;;;;;35.50;19.57;100399.39;84780;1326;25951;-75
2022/06/25 10:14:10;;;;;;;;;;;;;;;35.08;19.92;100391.23;84694;1326;25445;-76
2022/06/25 10:16:19;;;;;;;;;;;;;;;34.92;20.26;100391.55;84730;1327;24309;-77
2022/06/25 10:18:30;;;;;;;;;;;;;;;34.79;20.20;100389.73;84711;1326;22567;-75
2022/06/25 10:20:34;;;;;;;;;;;;;;;34.72;20.26;100388.16;84707;1326;22603;-70
2022/06/25 10:22:37;;;;;;;;;;;;;;;34.57;20.56;100385.16;84732;1327;24118;-70
2022/06/25 10:24:41;;;;;;;;;;;;;;;34.58;20.89;100383.21;84707;1330;23170;-69
2022/06/25 10:26:44;;;;;;;;;;;;;;;34.53;20.69;100383.60;84727;1326;22579;-69
2022/06/25 10:28:47;;;;;;;;;;;;;;;34.45;20.61;100382.06;84709;1326;24424;-69
2022/06/25 10:30:52;;;;;;;;;;;;;;;34.35;20.85;100370.88;84718;1326;24461;-69
2022/06/25 10:32:55;;;;;;;;;;;;;;;34.29;20.63;100367.23;84735;1327;22586;-68
2022/06/25 10:35:01;;;;;;;;;;;;;;;34.17;20.96;100373.27;84723;1328;22639;-68
2022/06/25 10:37:04;;;;;;;;;;;;;;;34.10;21.24;100374.30;84709;1326;22602;-68
2022/06/25 10:39:38;;;;;;;;;;;;;;;34.15;21.63;100378.59;84714;1326;24284;-68
2022/06/25 10:44:28;;;;;;;;;;;;;;;33.91;21.07;100370.87;84723;1329;22582;-68
2022/06/25 10:46:38;;;;;;;;;;;;;;;33.75;21.14;100371.71;84692;1326;22582;-69
2022/06/25 10:48:42;;;;;;;;;;;;;;;33.59;21.11;100362.84;84694;1327;22613;-69
2022/06/25 10:50:48;;;;;;;;;;;;;;;33.48;21.20;100356.31;84712;1324;22586;-70
2022/06/25 10:53:19;;;;;;;;;;;;;;;33.42;21.47;100354.34;84731;1326;22587;-73
2022/06/25 10:55:22;;;;;;;;;;;;;;;33.25;21.96;100357.31;84716;1324;22819;-69